Time;durP1;ratioP1;P1;durP2;ratioP2;P2;SDS_P1;SDS_P2;PMS_P1;PMS_P2;Temp;Humidity;BMP_temperature;BMP_pressure;BME280_temperature;BME280_humidity;BME280_pressure;Samples;Min_cycle;Max_cycle;Signal;HPM_P1;HPM_P2
2023/05/26 00:00:12;;;;;;;20.70;6.23;;;;;;;11.67;77.32;101990.59;4909699;29;20416;-68
2023/05/26 00:02:43;;;;;;;14.93;5.60;;;;;;;11.49;78.23;101987.38;4914838;29;20556;-70
2023/05/26 00:05:16;;;;;;;14.47;5.47;;;;;;;11.72;78.74;101987.34;4917756;29;20497;-70
2023/05/26 00:07:45;;;;;;;15.33;5.23;;;;;;;11.53;78.60;101988.69;4914587;29;20463;-70
2023/05/26 00:10:15;;;;;;;13.23;5.90;;;;;;;11.56;79.42;101984.78;4915736;29;20876;-70
2023/05/26 00:12:43;;;;;;;12.67;5.87;;;;;;;11.70;78.07;101992.97;4911960;29;20443;-69
2023/05/26 00:15:12;;;;;;;10.60;6.57;;;;;;;11.59;78.52;101993.41;4905233;29;20468;-71
2023/05/26 00:17:41;;;;;;;13.67;5.90;;;;;;;11.54;78.97;101994.97;4912042;29;20438;-69
2023/05/26 00:20:11;;;;;;;12.50;5.50;;;;;;;11.64;78.37;101990.97;4915009;29;20419;-70
2023/05/26 00:22:42;;;;;;;9.23;7.10;;;;;;;11.67;77.95;101985.19;4921996;29;21038;-69
2023/05/26 00:25:11;;;;;;;14.30;5.83;;;;;;;11.50;78.79;101994.50;4917742;29;20526;-70
2023/05/26 00:27:40;;;;;;;19.23;7.17;;;;;;;11.80;78.38;101989.19;4912655;29;20427;-69
2023/05/26 00:30:11;;;;;;;13.77;6.70;;;;;;;11.72;79.51;101987.34;4915706;29;20495;-69
2023/05/26 00:32:40;;;;;;;10.33;5.90;;;;;;;11.48;79.06;101985.69;4912677;29;20480;-69
2023/05/26 00:35:10;;;;;;;16.47;7.10;;;;;;;11.88;77.69;101987.25;4911629;29;20469;-69
2023/05/26 00:37:41;;;;;;;17.57;6.43;;;;;;;11.75;77.71;101982.44;4909374;29;20433;-69
2023/05/26 00:40:11;;;;;;;19.50;6.90;;;;;;;11.75;78.74;101978.91;4916101;29;20445;-70
2023/05/26 00:42:40;;;;;;;16.97;7.60;;;;;;;11.99;79.13;101983.25;4911056;29;20436;-70
2023/05/26 00:45:09;;;;;;;16.83;6.33;;;;;;;11.73;78.41;101983.66;4925329;29;20465;-69
2023/05/26 00:47:38;;;;;;;24.63;7.30;;;;;;;11.63;79.18;101992.00;4917174;29;20450;-70
2023/05/26 00:50:12;;;;;;;18.53;6.50;;;;;;;11.33;80.05;101995.63;4917847;29;20412;-70
2023/05/26 00:52:44;;;;;;;20.43;7.27;;;;;;;11.64;80.51;101988.28;4914092;29;20907;-69
2023/05/26 00:55:13;;;;;;;14.77;6.93;;;;;;;11.67;79.81;101996.03;4907262;29;20508;-68
2023/05/26 00:57:42;;;;;;;15.17;7.23;;;;;;;12.02;79.25;101999.97;4907630;29;20440;-70
2023/05/26 01:00:13;;;;;;;13.90;6.00;;;;;;;11.93;78.01;102001.09;4918628;29;20787;-70
2023/05/26 01:02:45;;;;;;;14.33;6.57;;;;;;;12.10;76.27;101993.66;4920544;29;20499;-68
2023/05/26 01:05:15;;;;;;;16.30;6.50;;;;;;;12.00;76.87;102001.22;4902808;29;20498;-69
2023/05/26 01:07:46;;;;;;;21.87;7.23;;;;;;;11.55;78.49;101996.66;4916287;29;20418;-70
2023/05/26 01:10:15;;;;;;;16.83;5.80;;;;;;;11.58;79.24;101994.41;4921390;29;20820;-70
2023/05/26 01:12:51;;;;;;;17.80;7.33;;;;;;;11.52;79.16;101997.84;4929342;29;20553;-69
2023/05/26 01:15:26;;;;;;;11.77;6.00;;;;;;;11.82;80.44;101985.25;4909843;29;20461;-70
2023/05/26 01:18:05;;;;;;;18.70;6.50;;;;;;;11.86;78.73;101991.19;4897230;29;20489;-70
2023/05/26 01:20:40;;;;;;;11.83;6.07;;;;;;;11.41;80.73;101987.44;4913874;29;20400;-70
2023/05/26 01:23:46;;;;;;;14.80;6.47;;;;;;;11.34;80.69;101989.19;4923456;29;20455;-70
2023/05/26 01:26:28;;;;;;;9.97;5.40;;;;;;;11.10;82.07;101992.91;4913900;29;20457;-71
2023/05/26 01:29:05;;;;;;;14.77;6.67;;;;;;;10.88;82.73;101982.91;4911944;29;20956;-70
2023/05/26 01:31:34;;;;;;;12.53;6.30;;;;;;;11.21;83.31;101988.94;4917684;29;20518;-70
2023/05/26 01:34:07;;;;;;;13.27;6.20;;;;;;;10.90;82.53;101991.66;4915164;29;20473;-69
2023/05/26 01:36:36;;;;;;;13.57;6.40;;;;;;;11.01;84.66;101995.84;4916345;29;20458;-71
2023/05/26 01:39:07;;;;;;;12.40;7.70;;;;;;;11.91;79.66;101996.91;4915981;29;20520;-69
2023/05/26 01:41:44;;;;;;;21.03;5.80;;;;;;;11.53;80.58;101987.84;4909754;29;20412;-69
2023/05/26 01:44:22;;;;;;;15.60;6.97;;;;;;;11.58;79.94;101990.84;4922482;29;20823;-69
2023/05/26 01:46:53;;;;;;;20.87;6.70;;;;;;;11.43;80.99;101998.09;4905308;29;20515;-70
2023/05/26 01:49:28;;;;;;;23.87;7.03;;;;;;;11.73;79.92;101994.50;4911810;29;20532;-69
2023/05/26 01:51:59;;;;;;;16.67;6.10;;;;;;;11.54;79.73;101994.97;4904316;29;20435;-70
2023/05/26 01:54:34;;;;;;;14.43;5.37;;;;;;;11.38;80.84;101993.22;4915987;29;20425;-69
2023/05/26 01:57:07;;;;;;;19.03;7.00;;;;;;;11.51;81.86;102001.59;4916759;29;20400;-69
2023/05/26 01:59:38;;;;;;;10.73;5.03;;;;;;;11.51;81.34;101988.06;4917814;29;20560;-69
2023/05/26 02:02:07;;;;;;;25.23;6.07;;;;;;;11.33;82.10;101990.19;4906059;29;20572;-68
2023/05/26 02:04:39;;;;;;;21.80;5.97;;;;;;;11.40;81.19;101995.75;4913076;29;20496;-69
2023/05/26 02:07:08;;;;;;;20.10;6.30;;;;;;;11.11;81.74;101993.75;4919676;29;20414;-70
2023/05/26 02:09:37;;;;;;;16.33;7.80;;;;;;;11.01;82.55;101991.28;4912446;29;20988;-70
2023/05/26 02:12:07;;;;;;;20.83;6.13;;;;;;;10.68;83.87;102000.59;4913033;29;20430;-70
2023/05/26 02:14:38;;;;;;;15.97;7.33;;;;;;;11.17;82.70;101999.31;4916460;29;20448;-69
2023/05/26 02:17:08;;;;;;;18.70;7.00;;;;;;;11.24;83.27;101999.41;4908798;29;20437;-69
2023/05/26 02:19:38;;;;;;;16.57;6.53;;;;;;;11.16;82.18;102005.75;4916194;29;20430;-70
2023/05/26 02:22:07;;;;;;;13.83;7.10;;;;;;;11.10;83.41;102005.59;4911367;29;20477;-71
2023/05/26 02:24:36;;;;;;;16.30;6.03;;;;;;;11.12;83.15;102006.28;4922959;29;20432;-68
2023/05/26 02:27:08;;;;;;;17.40;6.37;;;;;;;11.72;80.33;102009.91;4916919;29;20960;-69
2023/05/26 02:29:39;;;;;;;21.40;6.80;;;;;;;11.80;80.18;102010.88;4919019;29;20476;-71
2023/05/26 02:32:08;;;;;;;13.93;5.50;;;;;;;11.94;78.90;102018.22;4915850;29;20400;-70
2023/05/26 02:34:38;;;;;;;11.17;5.73;;;;;;;11.96;79.86;102005.28;4914976;29;20528;-71
2023/05/26 02:37:07;;;;;;;10.53;5.00;;;;;;;12.09;78.21;102016.38;4914477;29;20430;-69
2023/05/26 02:39:36;;;;;;;13.37;7.10;;;;;;;12.04;79.24;102013.38;4915670;29;20432;-68
2023/05/26 02:42:07;;;;;;;15.03;6.70;;;;;;;12.12;77.84;102011.41;4914491;29;20426;-68
2023/05/26 02:44:39;;;;;;;13.23;6.57;;;;;;;11.18;80.29;102021.84;4904318;29;20466;-70
2023/05/26 02:47:08;;;;;;;13.50;7.10;;;;;;;11.10;83.35;102024.56;4919621;29;20489;-69
2023/05/26 02:49:37;;;;;;;18.97;5.77;;;;;;;10.92;83.61;102019.44;4909727;29;20415;-70
2023/05/26 02:52:07;;;;;;;13.23;6.10;;;;;;;11.14;83.35;102015.06;4917509;29;20485;-69
2023/05/26 02:54:36;;;;;;;16.63;6.70;;;;;;;11.66;80.44;102016.06;4915359;29;20889;-70
2023/05/26 02:57:06;;;;;;;23.83;6.80;;;;;;;11.42;81.38;102026.25;4912335;29;20436;-70
2023/05/26 02:59:35;;;;;;;17.40;6.57;;;;;;;11.08;81.56;102018.50;4914868;29;20459;-69
2023/05/26 03:02:06;;;;;;;18.73;8.13;;;;;;;10.89;83.23;102026.03;4918336;29;20431;-69
2023/05/26 03:04:36;;;;;;;17.20;6.27;;;;;;;10.54;85.07;102022.97;4932281;29;20992;-69
2023/05/26 03:07:07;;;;;;;12.60;6.80;;;;;;;10.21;86.34;102027.66;4919643;29;20404;-70
2023/05/26 03:09:38;;;;;;;21.90;7.40;;;;;;;10.49;86.01;102031.63;4918392;29;20464;-69
2023/05/26 03:12:08;;;;;;;19.63;7.10;;;;;;;10.04;87.24;102027.63;4916193;29;20450;-69
2023/05/26 03:14:37;;;;;;;16.87;7.90;;;;;;;10.03;87.52;102025.94;4920299;29;20554;-69
2023/05/26 03:17:08;;;;;;;12.80;6.70;;;;;;;10.06;87.99;102029.34;4919256;29;20415;-69
2023/05/26 03:19:37;;;;;;;19.70;6.97;;;;;;;10.47;85.57;102028.25;4915907;29;20456;-68
2023/05/26 03:22:06;;;;;;;18.70;7.50;;;;;;;10.35;86.47;102035.06;4920439;29;20532;-69
2023/05/26 03:24:55;;;;;;;13.73;7.28;;;;;;;10.10;86.88;102026.09;4928673;29;20484;-69
2023/05/26 03:27:32;;;;;;;22.57;7.37;;;;;;;10.45;87.06;102036.56;4908825;29;20252;-68
2023/05/26 03:30:02;;;;;;;12.83;6.40;;;;;;;10.62;85.95;102034.63;4918775;29;20861;-69
2023/05/26 03:32:33;;;;;;;19.13;8.70;;;;;;;10.83;84.66;102040.31;4917641;29;20513;-69
2023/05/26 03:35:03;;;;;;;14.37;6.43;;;;;;;10.53;84.65;102037.53;4908884;29;20465;-69
2023/05/26 03:37:32;;;;;;;20.87;6.93;;;;;;;10.92;84.04;102040.25;4910416;29;20432;-69
2023/05/26 03:40:02;;;;;;;17.50;8.90;;;;;;;11.75;79.39;102046.69;4909728;29;20448;-69
2023/05/26 03:42:34;;;;;;;21.70;6.27;;;;;;;11.93;77.35;102049.06;4928868;29;20453;-70
2023/05/26 03:45:05;;;;;;;15.93;6.87;;;;;;;12.37;76.56;102051.88;4909663;29;20908;-70
2023/05/26 03:47:35;;;;;;;13.53;7.17;;;;;;;13.40;72.87;102045.31;4907332;29;20446;-69
2023/05/26 03:50:06;;;;;;;13.07;5.87;;;;;;;13.49;70.50;102048.75;4923786;29;20440;-70
2023/05/26 03:52:38;;;;;;;18.53;6.47;;;;;;;13.72;70.67;102051.25;4914212;29;20816;-69
2023/05/26 03:55:10;;;;;;;21.30;7.47;;;;;;;14.10;68.03;102051.81;4927406;29;20475;-69
2023/05/26 03:57:40;;;;;;;14.70;6.50;;;;;;;14.64;65.39;102061.03;4923626;29;20458;-69
2023/05/26 04:00:11;;;;;;;12.40;6.20;;;;;;;14.59;64.13;102054.50;4913243;29;20416;-70
2023/05/26 04:02:47;;;;;;;12.23;6.47;;;;;;;14.39;64.66;102054.34;4924157;29;20496;-69
2023/05/26 04:05:17;;;;;;;20.30;7.30;;;;;;;14.77;63.21;102057.50;4919692;29;20424;-69
2023/05/26 04:07:47;;;;;;;16.33;6.63;;;;;;;14.51;62.77;102065.56;4910248;29;21055;-69
2023/05/26 04:10:16;;;;;;;19.07;7.13;;;;;;;14.20;64.30;102063.19;4903534;29;20453;-70
2023/05/26 04:12:45;;;;;;;16.87;6.70;;;;;;;14.81;62.66;102067.00;4913326;29;20436;-70
2023/05/26 04:15:15;;;;;;;16.97;5.80;;;;;;;14.95;62.41;102074.19;4915003;29;20498;-70
2023/05/26 04:17:44;;;;;;;17.17;6.10;;;;;;;15.43;60.58;102071.44;4916304;29;20917;-70
2023/05/26 04:20:15;;;;;;;15.10;6.70;;;;;;;14.93;60.96;102073.53;4904215;29;20625;-71
2023/05/26 04:22:46;;;;;;;20.03;7.30;;;;;;;14.57;63.29;102073.75;4919912;29;20485;-70
2023/05/26 04:25:18;;;;;;;10.73;5.20;;;;;;;15.05;62.42;102073.81;4907361;29;20944;-70
2023/05/26 04:27:58;;;;;;;11.73;5.50;;;;;;;15.54;59.74;102068.16;4915006;29;20420;-71
2023/05/26 04:30:40;;;;;;;29.33;7.87;;;;;;;15.80;58.48;102079.09;4908170;29;20524;-69
2023/05/26 04:33:30;;;;;;;14.30;6.33;;;;;;;15.80;58.24;102081.81;4898289;29;20465;-71
2023/05/26 04:36:10;;;;;;;10.30;5.93;;;;;;;15.68;58.29;102083.50;4912660;29;20468;-69
2023/05/26 04:38:45;;;;;;;18.47;6.67;;;;;;;15.43;59.73;102088.66;4908180;29;20935;-70
2023/05/26 04:41:15;;;;;;;15.80;5.50;;;;;;;15.15;60.06;102088.72;4916711;29;20435;-70
2023/05/26 04:43:44;;;;;;;12.57;5.77;;;;;;;15.90;58.29;102093.16;4908898;29;20447;-69
2023/05/26 04:46:15;;;;;;;9.13;6.30;;;;;;;16.17;58.62;102087.75;4906246;29;20527;-70
2023/05/26 04:48:45;;;;;;;16.67;5.90;;;;;;;16.72;56.45;102087.28;4920954;29;20448;-70
2023/05/26 04:51:15;;;;;;;21.30;7.17;;;;;;;16.55;57.28;102090.66;4916140;29;20477;-70
2023/05/26 04:53:45;;;;;;;15.77;5.37;;;;;;;15.73;57.65;102083.72;4916520;29;20892;-70
2023/05/26 04:56:15;;;;;;;21.00;6.50;;;;;;;16.29;56.84;102083.31;4905752;29;20541;-70
2023/05/26 04:58:52;;;;;;;15.20;6.13;;;;;;;16.09;57.41;102084.16;4907828;29;20442;-70
2023/05/26 05:01:21;;;;;;;20.20;7.33;;;;;;;17.05;55.17;102087.16;4921833;29;20953;-69
2023/05/26 05:04:13;;;;;;;11.00;6.03;;;;;;;16.39;56.02;102079.09;4896648;29;21020;-68
2023/05/26 05:06:50;;;;;;;10.50;6.27;;;;;;;16.79;55.31;102074.44;4915486;29;20535;-71
2023/05/26 05:09:19;;;;;;;16.73;7.40;;;;;;;16.81;54.94;102076.94;4917462;29;20404;-71
2023/05/26 05:11:48;;;;;;;13.10;5.63;;;;;;;16.06;56.91;102075.56;4915901;29;20439;-70
2023/05/26 05:14:18;;;;;;;19.10;7.10;;;;;;;16.93;54.96;102081.53;4913970;29;20425;-70
2023/05/26 05:16:51;;;;;;;15.73;5.60;;;;;;;17.17;54.14;102082.72;4915208;29;20408;-70
2023/05/26 05:19:20;;;;;;;19.40;5.40;;;;;;;17.61;53.48;102079.16;4912329;29;20441;-71
2023/05/26 05:21:54;;;;;;;15.10;5.17;;;;;;;17.34;53.63;102083.03;5009726;23;20447;-66
2023/05/26 05:24:25;;;;;;;12.60;4.93;;;;;;;17.62;52.99;102089.00;4914214;29;20905;-65
2023/05/26 05:26:57;;;;;;;13.07;4.10;;;;;;;18.22;51.91;102081.19;4915117;29;20821;-68
2023/05/26 05:29:27;;;;;;;19.10;7.00;;;;;;;16.79;55.00;102077.16;4897213;29;20433;-68
2023/05/26 05:31:59;;;;;;;12.30;5.60;;;;;;;15.20;59.38;102080.78;4907165;29;20698;-67
2023/05/26 05:34:32;;;;;;;16.93;6.63;;;;;;;14.04;64.44;102090.72;4923701;29;20510;-69
2023/05/26 05:37:03;;;;;;;20.07;5.73;;;;;;;13.41;67.81;102090.47;4907611;29;20443;-69
2023/05/26 05:39:32;;;;;;;9.37;4.40;;;;;;;13.61;67.89;102089.84;4926415;29;20429;-68
2023/05/26 05:42:02;;;;;;;15.13;5.17;;;;;;;13.20;69.54;102093.19;4909108;29;20790;-66
2023/05/26 05:44:31;;;;;;;16.37;7.20;;;;;;;13.35;69.60;102096.72;4908703;29;21029;-68
2023/05/26 05:47:00;;;;;;;22.23;6.77;;;;;;;13.17;70.46;102101.69;4922706;29;20429;-68
2023/05/26 05:49:43;;;;;;;18.70;7.10;;;;;;;13.16;70.88;102102.75;4904243;29;20437;-68
2023/05/26 05:52:14;;;;;;;16.10;5.40;;;;;;;13.31;70.29;102106.25;4910838;29;20443;-67
2023/05/26 05:54:44;;;;;;;16.20;5.33;;;;;;;13.58;70.56;102107.41;4910183;29;20465;-66
2023/05/26 05:57:13;;;;;;;20.20;7.30;;;;;;;14.07;68.77;102112.94;4915150;29;20445;-67
2023/05/26 05:59:42;;;;;;;9.90;6.20;;;;;;;14.03;68.10;102116.25;4907800;29;20457;-68
2023/05/26 06:02:12;;;;;;;17.83;6.43;;;;;;;13.93;68.56;102111.13;4923452;29;20472;-68
2023/05/26 06:04:42;;;;;;;24.93;7.40;;;;;;;13.83;68.83;102116.06;4911776;29;20461;-66
2023/05/26 06:07:12;;;;;;;17.03;5.80;;;;;;;13.68;68.71;102115.25;4911617;29;20450;-67
2023/05/26 06:09:42;;;;;;;13.90;5.53;;;;;;;13.77;68.14;102122.25;4905730;29;20522;-67
2023/05/26 06:12:11;;;;;;;11.70;6.37;;;;;;;13.86;68.84;102121.94;4908051;29;20436;-67
2023/05/26 06:14:44;;;;;;;13.53;4.90;;;;;;;13.67;69.45;102121.72;4914115;29;20435;-66
2023/05/26 06:17:13;;;;;;;93.20;63.87;;;;;;;14.07;68.46;102118.38;4920730;29;20444;-66
2023/05/26 06:19:42;;;;;;;36.63;25.57;;;;;;;14.04;67.37;102121.47;4918442;29;20404;-66
2023/05/26 06:22:13;;;;;;;20.00;7.93;;;;;;;13.88;68.52;102116.31;4911607;29;20448;-68
2023/05/26 06:24:42;;;;;;;15.03;5.70;;;;;;;13.94;68.38;102123.72;4920672;29;20890;-67
2023/05/26 06:27:11;;;;;;;18.97;5.53;;;;;;;14.33;68.22;102121.31;4909658;29;20429;-66
2023/05/26 06:29:44;;;;;;;15.57;4.63;;;;;;;14.80;66.19;102128.00;4918987;29;20484;-68
2023/05/26 06:32:14;;;;;;;11.73;5.00;;;;;;;14.95;65.39;102123.25;4913867;29;20953;-66
2023/05/26 06:34:43;;;;;;;12.70;6.73;;;;;;;14.74;65.07;102120.59;4912238;29;20441;-66
2023/05/26 06:37:13;;;;;;;14.70;6.47;;;;;;;14.49;65.87;102119.38;4915038;29;20438;-68
2023/05/26 06:39:42;;;;;;;15.77;5.30;;;;;;;14.36;66.32;102125.56;4916357;29;20821;-67
2023/05/26 06:42:18;;;;;;;14.53;4.97;;;;;;;14.37;66.49;102124.53;4916474;29;21054;-68
2023/05/26 06:44:47;;;;;;;18.60;6.47;;;;;;;14.33;66.13;102128.63;4912733;29;20496;-67
2023/05/26 06:47:23;;;;;;;25.17;6.30;;;;;;;14.41;65.22;102124.97;4919279;29;20979;-66
2023/05/26 06:50:04;;;;;;;19.80;6.40;;;;;;;14.74;65.08;102123.31;4916282;29;20457;-66
2023/05/26 06:52:35;;;;;;;15.30;4.43;;;;;;;15.14;63.58;102122.53;4914291;29;20444;-67
2023/05/26 06:55:04;;;;;;;12.83;4.77;;;;;;;15.32;63.34;102127.41;4911626;29;20440;-69
2023/05/26 06:57:33;;;;;;;13.67;4.10;;;;;;;15.40;61.96;102120.91;4916066;29;20974;-69
2023/05/26 07:00:04;;;;;;;19.27;6.40;;;;;;;15.36;61.77;102125.09;4916561;29;20449;-70
2023/05/26 07:02:33;;;;;;;12.83;5.17;;;;;;;15.63;61.54;102124.22;4907526;29;20414;-68
2023/05/26 07:05:21;;;;;;;22.93;6.57;;;;;;;15.77;60.73;102122.34;4915179;29;20460;-65
2023/05/26 07:07:52;;;;;;;15.30;4.70;;;;;;;15.40;60.72;102123.66;4906635;29;20425;-66
2023/05/26 07:10:21;;;;;;;10.87;5.83;;;;;;;15.33;60.70;102129.09;4920368;29;20446;-65
2023/05/26 07:12:50;;;;;;;17.50;5.80;;;;;;;15.37;60.83;102129.53;4922088;29;20763;-65
2023/05/26 07:15:25;;;;;;;18.93;6.63;;;;;;;15.21;60.63;102133.44;4920448;29;20458;-67
2023/05/26 07:17:54;;;;;;;16.23;5.43;;;;;;;14.99;60.71;102130.00;4914314;29;20984;-67
2023/05/26 07:20:23;;;;;;;18.90;8.00;;;;;;;15.25;60.62;102136.63;4920307;29;20521;-67
2023/05/26 07:22:54;;;;;;;20.53;5.23;;;;;;;15.29;61.05;102141.47;4917644;29;20501;-67
2023/05/26 07:25:28;;;;;;;19.80;6.00;;;;;;;15.52;59.93;102131.09;4916825;29;20461;-67
2023/05/26 07:27:59;;;;;;;17.33;6.73;;;;;;;15.82;58.87;102128.88;4912915;29;20444;-67
2023/05/26 07:30:29;;;;;;;19.77;6.97;;;;;;;16.03;56.98;102134.13;4933745;29;21002;-69
2023/05/26 07:33:20;;;;;;;8.37;4.57;;;;;;;16.00;56.86;102129.09;4915221;29;20463;-67
2023/05/26 07:35:50;;;;;;;18.57;3.97;;;;;;;15.95;56.71;102133.50;4917674;29;21174;-67
2023/05/26 07:38:20;;;;;;;17.43;5.80;;;;;;;15.78;57.27;102140.41;4919775;29;20436;-68
2023/05/26 07:40:49;;;;;;;21.40;6.30;;;;;;;15.65;58.41;102135.72;4915591;29;20408;-66
2023/05/26 07:43:19;;;;;;;16.67;5.07;;;;;;;16.03;57.72;102139.59;4916221;29;20762;-66
2023/05/26 07:45:48;;;;;;;11.27;4.07;;;;;;;16.19;56.04;102142.97;4918122;29;20690;-69
2023/05/26 07:48:17;;;;;;;20.27;5.77;;;;;;;15.99;56.46;102151.97;4920936;29;20404;-68
2023/05/26 07:50:49;;;;;;;20.47;4.90;;;;;;;16.02;56.69;102148.81;4916279;29;20500;-68
2023/05/26 07:53:20;;;;;;;14.23;4.10;;;;;;;16.40;55.33;102138.16;4915121;29;20408;-67
2023/05/26 07:55:49;;;;;;;14.03;4.30;;;;;;;16.58;53.79;102148.47;4909911;29;20856;-68
2023/05/26 07:58:18;;;;;;;17.53;4.77;;;;;;;16.26;54.25;102155.59;4913573;29;20419;-69
2023/05/26 08:00:48;;;;;;;14.90;5.07;;;;;;;16.22;55.15;102153.47;4907092;29;20634;-68
2023/05/26 08:03:17;;;;;;;13.70;4.53;;;;;;;16.35;54.84;102154.34;4913975;29;20416;-66
2023/05/26 08:05:46;;;;;;;15.50;4.87;;;;;;;16.61;54.56;102149.94;4917789;29;20452;-68
2023/05/26 08:08:15;;;;;;;16.87;4.77;;;;;;;16.51;54.06;102153.91;4917219;29;20420;-68
2023/05/26 08:10:46;;;;;;;18.47;7.17;;;;;;;16.42;54.49;102159.78;4913175;29;20497;-67
2023/05/26 08:13:15;;;;;;;9.17;4.70;;;;;;;16.49;54.55;102150.56;4907924;29;20445;-68
2023/05/26 08:15:44;;;;;;;15.27;4.60;;;;;;;16.64;53.01;102153.09;4917706;29;20490;-68
2023/05/26 08:18:15;;;;;;;14.97;4.70;;;;;;;16.50;53.07;102151.41;4920943;29;20450;-66
2023/05/26 08:20:44;;;;;;;12.10;4.97;;;;;;;16.37;54.06;102151.38;4920558;29;20485;-68
2023/05/26 08:23:13;;;;;;;18.33;4.63;;;;;;;16.37;54.21;102141.28;4918120;29;20471;-68
2023/05/26 08:25:45;;;;;;;16.47;5.50;;;;;;;16.27;54.02;102137.28;4911644;29;20542;-67
2023/05/26 08:28:15;;;;;;;17.53;4.90;;;;;;;16.56;53.79;102142.34;4907846;29;20436;-68
2023/05/26 08:30:44;;;;;;;19.07;4.50;;;;;;;16.42;54.49;102132.47;4912779;29;20441;-67
2023/05/26 08:33:13;;;;;;;16.63;5.97;;;;;;;16.63;53.44;102129.56;4912890;29;20666;-69
2023/05/26 08:35:42;;;;;;;23.87;6.57;;;;;;;16.50;54.25;102132.28;4914274;29;20812;-66
2023/05/26 08:38:12;;;;;;;16.30;6.00;;;;;;;16.91;53.12;102127.38;4913118;29;20431;-67
2023/05/26 08:40:41;;;;;;;12.90;4.87;;;;;;;16.87;54.03;102130.75;4915407;29;20928;-66
2023/05/26 08:43:16;;;;;;;13.17;4.37;;;;;;;17.05;53.13;102128.19;4913156;29;20429;-68
2023/05/26 08:45:47;;;;;;;15.67;4.80;;;;;;;17.30;51.41;102126.41;4910786;29;20451;-66
2023/05/26 08:48:18;;;;;;;11.80;5.13;;;;;;;17.11;52.03;102123.75;4913450;29;20423;-68
2023/05/26 08:50:50;;;;;;;15.50;3.90;;;;;;;17.22;51.24;102125.81;4910825;29;20436;-67
2023/05/26 08:53:20;;;;;;;18.77;5.53;;;;;;;17.12;50.09;102128.19;4912945;29;20408;-66
2023/05/26 08:55:50;;;;;;;15.30;5.07;;;;;;;17.21;49.75;102126.88;4904033;29;20894;-64
2023/05/26 08:58:22;;;;;;;10.27;5.00;;;;;;;17.44;49.22;102127.19;4914530;29;20400;-67
2023/05/26 09:00:51;;;;;;;15.90;5.20;;;;;;;17.47;48.81;102131.41;4911714;29;20436;-68
2023/05/26 09:03:20;;;;;;;11.97;4.87;;;;;;;17.17;48.47;102131.09;4908348;29;20818;-66
2023/05/26 09:05:49;;;;;;;53.10;8.30;;;;;;;17.17;49.86;102137.41;4909669;29;20570;-70
2023/05/26 09:08:19;;;;;;;7.83;4.17;;;;;;;17.35;50.41;102128.50;4914757;29;20413;-66
2023/05/26 09:10:48;;;;;;;18.40;5.17;;;;;;;17.24;50.09;102129.16;4910071;29;20434;-69
2023/05/26 09:13:21;;;;;;;14.33;5.03;;;;;;;17.64;47.54;102127.13;4909594;29;20419;-66
2023/05/26 09:15:53;;;;;;;8.50;4.40;;;;;;;17.69;47.08;102122.66;4912311;29;20432;-67
2023/05/26 09:18:43;;;;;;;10.67;5.03;;;;;;;17.70;45.88;102129.00;4915930;29;20410;-69
2023/05/26 09:21:13;;;;;;;8.43;4.60;;;;;;;17.86;45.85;102125.75;4919250;29;20451;-67
2023/05/26 09:23:48;;;;;;;19.57;4.73;;;;;;;17.97;45.25;102122.28;4909061;29;20725;-68
2023/05/26 09:26:19;;;;;;;9.20;4.17;;;;;;;18.19;43.88;102125.50;4911862;29;20977;-69
2023/05/26 09:28:51;;;;;;;13.20;5.03;;;;;;;18.27;43.92;102127.13;4919794;29;20413;-67
2023/05/26 09:31:20;;;;;;;11.90;4.87;;;;;;;18.02;44.31;102124.34;4905608;29;20424;-66
2023/05/26 09:33:49;;;;;;;10.77;3.60;;;;;;;18.08;44.64;102124.31;4920391;29;20409;-68
2023/05/26 09:36:23;;;;;;;13.20;4.27;;;;;;;17.84;44.47;102125.13;4910939;29;20440;-67
2023/05/26 09:38:53;;;;;;;7.93;4.30;;;;;;;17.81;44.27;102134.59;4910902;29;20408;-68
2023/05/26 09:41:22;;;;;;;10.33;3.17;;;;;;;17.48;44.87;102127.59;4914813;29;20423;-67
2023/05/26 09:43:53;;;;;;;13.13;4.47;;;;;;;17.74;43.67;102128.34;4907922;29;20401;-69
2023/05/26 09:46:23;;;;;;;17.80;4.90;;;;;;;18.14;44.09;102130.81;4920993;29;20494;-67
2023/05/26 09:48:52;;;;;;;9.40;4.60;;;;;;;18.37;42.03;102122.81;4918811;29;20503;-68
2023/05/26 09:51:30;;;;;;;11.00;3.10;;;;;;;17.77;43.15;102130.63;4914567;29;20448;-67
2023/05/26 09:54:06;;;;;;;16.23;5.17;;;;;;;18.18;43.33;102119.19;4916130;29;20436;-67
2023/05/26 09:56:38;;;;;;;16.70;4.73;;;;;;;18.31;44.25;102112.75;4910530;29;20432;-68
2023/05/26 09:59:10;;;;;;;26.70;6.40;;;;;;;18.23;44.54;102113.03;4915190;29;20431;-66
2023/05/26 10:01:39;;;;;;;7.83;3.63;;;;;;;18.55;43.95;102114.66;4914266;29;20433;-67
2023/05/26 10:04:10;;;;;;;13.07;4.27;;;;;;;18.89;41.88;102123.38;4921078;29;20498;-65
2023/05/26 10:06:41;;;;;;;9.43;3.60;;;;;;;18.52;42.08;102126.06;4919129;29;20538;-65
2023/05/26 10:09:11;;;;;;;14.67;4.00;;;;;;;18.57;42.16;102118.03;4918587;29;20782;-67
2023/05/26 10:11:45;;;;;;;17.23;3.80;;;;;;;18.32;41.49;102119.06;4921478;29;20476;-66
2023/05/26 10:14:15;;;;;;;14.03;4.03;;;;;;;18.43;42.82;102116.44;4915704;29;20452;-65
2023/05/26 10:16:44;;;;;;;10.93;5.97;;;;;;;18.29;43.38;102120.38;4919434;29;20433;-66
2023/05/26 10:19:14;;;;;;;13.63;5.50;;;;;;;18.12;43.90;102111.00;4927474;29;20441;-66
2023/05/26 10:21:48;;;;;;;11.33;4.50;;;;;;;18.52;43.37;102115.09;4912508;29;20437;-66
2023/05/26 10:24:24;;;;;;;19.77;6.13;;;;;;;19.02;43.43;102109.53;4906349;29;20469;-71
2023/05/26 10:26:59;;;;;;;15.33;3.70;;;;;;;18.96;41.08;102107.72;4913875;29;20778;-67
2023/05/26 10:29:35;;;;;;;15.83;6.17;;;;;;;18.79;42.32;102112.94;4916423;29;20804;-67
2023/05/26 10:32:05;;;;;;;13.47;4.30;;;;;;;18.41;42.72;102112.22;4912038;29;21003;-66
2023/05/26 10:34:38;;;;;;;16.40;4.80;;;;;;;18.28;42.52;102112.34;4909292;29;20516;-66
2023/05/26 10:37:16;;;;;;;13.23;3.93;;;;;;;18.04;42.80;102116.75;4916785;29;20936;-68
2023/05/26 10:39:46;;;;;;;10.10;3.87;;;;;;;18.57;42.38;102107.06;4915349;29;20941;-68
2023/05/26 10:42:18;;;;;;;16.70;5.13;;;;;;;19.11;42.09;102119.13;4915984;29;20443;-68
2023/05/26 10:44:51;;;;;;;13.67;4.50;;;;;;;19.03;41.94;102116.69;4909775;29;20520;-66
2023/05/26 10:47:21;;;;;;;13.30;5.07;;;;;;;18.74;42.05;102117.41;4917051;29;20834;-67
2023/05/26 10:49:57;;;;;;;12.87;4.47;;;;;;;18.78;41.60;102108.53;4910807;29;20460;-68
2023/05/26 10:52:27;;;;;;;16.37;5.17;;;;;;;18.94;41.00;102101.59;4913613;29;20482;-69
2023/05/26 10:55:00;;;;;;;13.93;3.73;;;;;;;18.62;41.88;102099.00;4914138;29;20474;-68
2023/05/26 10:57:31;;;;;;;12.03;4.20;;;;;;;18.53;41.78;102108.56;4909520;29;20791;-65
2023/05/26 11:00:19;;;;;;;10.67;3.97;;;;;;;18.56;40.22;102108.13;4910091;29;21001;-65
2023/05/26 11:02:49;;;;;;;9.33;3.50;;;;;;;18.92;40.70;102104.59;4908491;29;20464;-68
2023/05/26 11:05:33;;;;;;;8.80;3.97;;;;;;;18.86;39.79;102099.16;4908265;29;20818;-67
2023/05/26 11:08:02;;;;;;;10.67;4.03;;;;;;;19.16;39.83;102105.56;4910582;29;21046;-69
2023/05/26 11:11:03;;;;;;;12.20;4.57;;;;;;;19.62;39.00;102106.88;4916313;29;20606;-72
2023/05/26 11:13:44;;;;;;;6.77;3.07;;;;;;;19.19;39.00;102107.84;4906068;29;20503;-68
2023/05/26 11:16:24;;;;;;;13.50;3.97;;;;;;;19.12;40.02;102103.50;4910707;29;20467;-68
2023/05/26 11:18:55;;;;;;;8.83;4.30;;;;;;;19.43;39.31;102103.31;4913492;29;20462;-67
2023/05/26 11:21:27;;;;;;;6.73;3.20;;;;;;;19.79;38.50;102094.19;4919312;29;20413;-68
2023/05/26 11:23:58;;;;;;;11.37;3.83;;;;;;;20.10;34.98;102104.03;4921802;29;21022;-66
2023/05/26 11:26:30;;;;;;;9.80;2.70;;;;;;;19.62;34.37;102104.13;4918783;29;20455;-68
2023/05/26 11:29:02;;;;;;;7.67;3.43;;;;;;;19.38;31.29;102098.53;4917630;29;20452;-67
2023/05/26 11:31:33;;;;;;;8.10;2.90;;;;;;;19.30;32.31;102109.81;4917385;29;20752;-68
2023/05/26 11:34:03;;;;;;;7.53;2.43;;;;;;;19.46;32.44;102106.47;4908892;29;20480;-66
2023/05/26 11:36:32;;;;;;;6.03;2.73;;;;;;;19.06;33.34;102103.38;4906678;29;20468;-68